createdAt,value
2022-12-16T00:00:02.208Z,1.60
2022-12-16T00:02:38.846Z,1.60
2022-12-16T00:05:12.503Z,1.60
2022-12-16T00:07:45.785Z,1.60
2022-12-16T00:10:20.680Z,1.70
2022-12-16T00:12:53.975Z,1.70
2022-12-16T00:15:28.847Z,1.70
2022-12-16T00:18:02.131Z,1.70
2022-12-16T00:20:35.424Z,1.60
2022-12-16T00:23:08.864Z,1.60
2022-12-16T00:25:44.936Z,1.60
2022-12-16T00:28:22.644Z,1.60
2022-12-16T00:30:57.469Z,1.60
2022-12-16T00:33:31.470Z,1.60
2022-12-16T00:36:05.613Z,1.60
2022-12-16T00:38:39.463Z,1.60
2022-12-16T00:41:14.171Z,1.60
2022-12-16T00:43:47.497Z,1.60
2022-12-16T00:46:20.846Z,1.60
2022-12-16T00:48:54.726Z,1.60
2022-12-16T00:51:28.764Z,1.60
2022-12-16T00:54:02.244Z,1.60
2022-12-16T00:56:36.999Z,1.60
2022-12-16T00:59:10.661Z,1.60
2022-12-16T01:01:44.144Z,1.50
2022-12-16T01:04:17.843Z,1.60
2022-12-16T01:06:51.099Z,1.60
2022-12-16T01:09:25.909Z,1.60
2022-12-16T01:12:00.627Z,1.60
2022-12-16T01:14:34.145Z,1.60
2022-12-16T01:17:07.642Z,1.60
2022-12-16T01:19:41.435Z,1.60
2022-12-16T01:22:15.197Z,1.60
2022-12-16T01:24:48.608Z,1.60
2022-12-16T01:27:23.362Z,1.60
2022-12-16T01:29:57.078Z,1.70
2022-12-16T01:32:30.545Z,1.60
2022-12-16T01:35:07.878Z,1.70
2022-12-16T01:37:51.786Z,1.70
2022-12-16T01:40:26.165Z,1.70
2022-12-16T01:43:00.836Z,1.70
2022-12-16T01:45:36.479Z,1.70
2022-12-16T01:48:21.130Z,1.70
2022-12-16T01:50:57.163Z,1.80
2022-12-16T01:53:31.747Z,1.80
2022-12-16T01:56:05.892Z,1.80
2022-12-16T01:58:42.402Z,1.80
2022-12-16T02:01:17.785Z,1.80
2022-12-16T02:03:53.917Z,1.90
2022-12-16T02:06:27.532Z,1.90
2022-12-16T02:09:05.467Z,1.90
2022-12-16T02:12:00.187Z,2.00
2022-12-16T02:14:59.760Z,1.90
2022-12-16T02:17:42.043Z,1.90
2022-12-16T02:20:45.021Z,1.90
2022-12-16T02:23:50.503Z,1.90
2022-12-16T02:26:48.023Z,2.00
2022-12-16T02:32:41.038Z,2.00
2022-12-16T02:35:21.938Z,2.00
2022-12-16T02:38:09.041Z,2.00
2022-12-16T02:40:46.935Z,2.00
2022-12-16T02:43:40.543Z,2.00
2022-12-16T02:46:13.870Z,2.00
2022-12-16T02:48:48.637Z,2.10
2022-12-16T02:51:23.838Z,2.00
2022-12-16T02:53:57.186Z,2.00
2022-12-16T02:56:42.681Z,2.00
2022-12-16T02:59:21.518Z,2.10
2022-12-16T03:02:02.978Z,2.10
2022-12-16T03:04:42.892Z,2.10
2022-12-16T03:07:19.000Z,2.00
2022-12-16T03:09:54.414Z,2.00
2022-12-16T03:12:28.351Z,2.00
2022-12-16T03:15:02.324Z,2.00
2022-12-16T03:17:38.315Z,2.00
2022-12-16T03:20:18.670Z,2.00
2022-12-16T03:22:55.604Z,2.00
2022-12-16T03:25:30.562Z,2.00
2022-12-16T03:28:13.306Z,1.90
2022-12-16T03:30:50.912Z,1.90
2022-12-16T03:33:29.712Z,1.90
2022-12-16T03:36:11.327Z,1.90
2022-12-16T03:38:46.724Z,1.90
2022-12-16T03:41:21.895Z,2.00
2022-12-16T03:43:55.756Z,2.00
2022-12-16T03:46:29.475Z,2.00
2022-12-16T03:49:02.856Z,2.00
2022-12-16T03:51:37.772Z,2.10
2022-12-16T03:54:11.315Z,2.00
2022-12-16T03:56:44.749Z,2.00
2022-12-16T03:59:18.186Z,2.00
2022-12-16T04:01:51.624Z,2.00
2022-12-16T04:04:25.498Z,2.00
2022-12-16T04:07:17.646Z,2.10
2022-12-16T04:09:51.617Z,2.00
2022-12-16T04:12:42.208Z,2.10
2022-12-16T04:15:33.482Z,2.00
2022-12-16T04:18:24.971Z,2.00
2022-12-16T04:21:16.058Z,2.00
2022-12-16T04:24:11.017Z,2.00
2022-12-16T04:26:58.354Z,2.00
2022-12-16T04:29:31.904Z,2.00
2022-12-16T04:32:05.740Z,2.00
2022-12-16T04:34:38.032Z,1.90
2022-12-16T04:37:28.997Z,1.90
2022-12-16T04:40:21.514Z,1.90
2022-12-16T04:43:12.159Z,1.90
2022-12-16T04:46:05.521Z,1.90
2022-12-16T04:48:56.042Z,2.00
2022-12-16T04:51:46.865Z,2.00
2022-12-16T04:54:37.442Z,2.00
2022-12-16T04:57:28.845Z,2.00
2022-12-16T05:00:19.677Z,2.00
2022-12-16T05:03:10.153Z,2.00
2022-12-16T05:06:01.428Z,2.00
2022-12-16T05:08:52.134Z,2.00
2022-12-16T05:11:43.037Z,2.00
2022-12-16T05:14:35.174Z,2.00
2022-12-16T05:17:26.166Z,2.00
2022-12-16T05:20:16.867Z,2.10
2022-12-16T05:23:07.802Z,2.10
2022-12-16T05:25:58.641Z,2.10
2022-12-16T05:28:49.460Z,2.10
2022-12-16T05:31:41.823Z,2.10
2022-12-16T05:34:33.032Z,2.10
2022-12-16T05:37:23.619Z,2.10
2022-12-16T05:40:14.553Z,2.10
2022-12-16T05:43:06.440Z,2.00
2022-12-16T05:45:54.791Z,2.00
2022-12-16T05:48:47.947Z,2.00
2022-12-16T05:51:38.937Z,2.00
2022-12-16T05:54:29.491Z,1.90
2022-12-16T05:57:20.343Z,2.00
2022-12-16T06:00:10.935Z,2.00
2022-12-16T06:03:04.403Z,2.00
2022-12-16T06:05:56.951Z,1.90
2022-12-16T06:08:47.963Z,2.00
2022-12-16T06:11:38.629Z,2.00
2022-12-16T06:14:29.361Z,2.00
2022-12-16T06:17:20.275Z,2.00
2022-12-16T06:20:11.044Z,2.00
2022-12-16T06:23:09.294Z,2.00
2022-12-16T06:26:00.766Z,2.00
2022-12-16T06:28:51.483Z,2.00
2022-12-16T06:31:42.371Z,2.00
2022-12-16T06:34:33.118Z,2.10
2022-12-16T06:37:23.904Z,2.10
2022-12-16T06:40:16.238Z,2.00
2022-12-16T06:43:06.941Z,2.10
2022-12-16T06:45:57.695Z,2.10
2022-12-16T06:48:50.701Z,2.00
2022-12-16T06:51:41.333Z,2.10
2022-12-16T06:54:32.149Z,2.10
2022-12-16T06:57:24.611Z,2.10
2022-12-16T07:00:15.430Z,2.10
2022-12-16T07:03:06.041Z,2.10
2022-12-16T07:05:56.570Z,2.10
2022-12-16T07:08:47.474Z,2.10
2022-12-16T07:11:38.152Z,2.10
2022-12-16T07:14:30.362Z,2.10
2022-12-16T07:17:21.159Z,2.10
2022-12-16T07:20:11.852Z,2.10
2022-12-16T07:23:11.851Z,2.20
2022-12-16T07:26:08.156Z,2.20
2022-12-16T07:28:58.838Z,2.20
2022-12-16T07:31:51.354Z,2.20
2022-12-16T07:34:45.969Z,2.20
2022-12-16T07:37:40.792Z,2.20
2022-12-16T07:40:31.800Z,2.20
2022-12-16T07:43:22.343Z,2.20
2022-12-16T07:46:13.917Z,2.30
2022-12-16T07:49:05.977Z,2.30
2022-12-16T07:51:56.784Z,2.30
2022-12-16T07:54:48.186Z,2.30
2022-12-16T07:57:39.213Z,2.30
2022-12-16T08:00:45.309Z,2.30
2022-12-16T08:03:37.117Z,2.30
2022-12-16T08:06:29.712Z,2.30
2022-12-16T08:09:20.907Z,2.30
2022-12-16T08:12:11.587Z,2.40
2022-12-16T08:15:02.328Z,2.40
2022-12-16T08:17:58.413Z,2.30
2022-12-16T08:20:57.561Z,2.40
2022-12-16T08:23:49.586Z,2.30
2022-12-16T08:26:40.436Z,2.30
2022-12-16T08:29:46.408Z,2.30
2022-12-16T08:32:36.944Z,2.40
2022-12-16T08:35:27.671Z,2.40
2022-12-16T08:38:18.511Z,2.40
2022-12-16T08:41:13.995Z,2.50
2022-12-16T08:44:04.512Z,2.50
2022-12-16T08:46:55.120Z,2.50
2022-12-16T08:49:45.690Z,2.50
2022-12-16T08:52:36.410Z,2.60
2022-12-16T08:55:29.744Z,2.50
2022-12-16T08:58:21.887Z,2.50
2022-12-16T09:01:12.553Z,2.50
2022-12-16T09:04:03.279Z,2.50
2022-12-16T09:06:54.239Z,2.60
2022-12-16T09:09:46.611Z,2.60
2022-12-16T09:12:37.086Z,2.60
2022-12-16T09:15:29.613Z,2.60
2022-12-16T09:18:20.373Z,2.60
2022-12-16T09:21:12.100Z,2.70
2022-12-16T09:24:02.755Z,2.70
2022-12-16T09:26:53.618Z,2.70
2022-12-16T09:29:45.204Z,2.80
2022-12-16T09:32:37.478Z,2.80
2022-12-16T09:35:33.797Z,2.90
2022-12-16T09:38:24.788Z,2.90
2022-12-16T09:41:16.054Z,2.90
2022-12-16T09:44:24.168Z,2.90
2022-12-16T09:47:27.842Z,2.90
2022-12-16T09:50:20.926Z,2.90
2022-12-16T09:53:16.574Z,2.90
2022-12-16T09:56:07.557Z,3.00
2022-12-16T09:59:02.448Z,3.00
2022-12-16T10:01:55.795Z,3.00
2022-12-16T10:04:46.804Z,3.00
2022-12-16T10:07:40.170Z,3.10
2022-12-16T10:10:42.287Z,3.10
2022-12-16T10:13:40.766Z,3.10
2022-12-16T10:16:37.298Z,3.10
2022-12-16T10:19:46.598Z,3.10
2022-12-16T10:22:45.715Z,3.10
2022-12-16T10:25:39.737Z,3.20
2022-12-16T10:28:36.345Z,3.10
2022-12-16T10:31:32.183Z,3.10
2022-12-16T10:34:29.740Z,3.10
2022-12-16T10:37:21.430Z,3.20
2022-12-16T10:40:17.238Z,3.20
2022-12-16T10:43:11.761Z,3.20
2022-12-16T10:46:07.426Z,3.20
2022-12-16T10:48:59.184Z,3.20
2022-12-16T10:51:50.048Z,3.30
2022-12-16T10:54:48.921Z,3.40
2022-12-16T10:57:52.491Z,3.40
2022-12-16T11:00:59.351Z,3.50
2022-12-16T11:03:51.239Z,3.60
2022-12-16T11:06:45.074Z,3.60
2022-12-16T11:09:47.626Z,3.70
2022-12-16T11:12:45.776Z,3.70
2022-12-16T11:15:43.215Z,3.70
2022-12-16T11:18:36.444Z,3.70
2022-12-16T11:21:33.213Z,3.70
2022-12-16T11:24:29.577Z,3.60
2022-12-16T11:27:21.836Z,3.60
2022-12-16T11:30:16.005Z,3.50
2022-12-16T11:33:10.623Z,3.60
2022-12-16T11:36:06.425Z,3.50
2022-12-16T11:39:01.420Z,3.50
2022-12-16T11:41:55.913Z,3.50
2022-12-16T11:44:50.886Z,3.40
2022-12-16T11:47:54.384Z,3.40
2022-12-16T11:50:46.718Z,3.40
2022-12-16T11:53:48.821Z,3.50
2022-12-16T11:56:42.619Z,3.50
2022-12-16T11:59:43.073Z,3.50
2022-12-16T12:02:38.412Z,3.50
2022-12-16T12:05:47.353Z,3.50
2022-12-16T12:08:44.186Z,3.60
2022-12-16T12:11:40.635Z,3.60
2022-12-16T12:14:48.089Z,3.60
2022-12-16T12:17:55.673Z,3.60
2022-12-16T12:21:00.424Z,3.60
2022-12-16T12:24:01.064Z,3.60
2022-12-16T12:26:54.441Z,3.50
2022-12-16T12:29:54.286Z,3.50
2022-12-16T12:32:54.164Z,3.50
2022-12-16T12:36:04.870Z,3.40
2022-12-16T12:39:02.673Z,3.40
2022-12-16T12:42:08.824Z,3.40
2022-12-16T12:45:09.767Z,3.40
2022-12-16T12:48:14.766Z,3.40
2022-12-16T12:51:15.605Z,3.30
2022-12-16T12:54:13.376Z,3.30
2022-12-16T12:57:08.802Z,3.20
2022-12-16T13:00:09.088Z,3.30
2022-12-16T13:03:07.051Z,3.20
2022-12-16T13:05:59.220Z,3.20
2022-12-16T13:09:00.721Z,3.20
2022-12-16T13:11:51.435Z,3.20
2022-12-16T13:15:14.755Z,3.30
2022-12-16T13:18:31.443Z,3.20
2022-12-16T13:21:30.836Z,3.20
2022-12-16T13:24:43.569Z,3.20
2022-12-16T13:27:35.618Z,3.10
2022-12-16T13:30:41.924Z,3.10
2022-12-16T13:33:47.806Z,3.10
2022-12-16T13:36:38.821Z,3.10
2022-12-16T13:39:46.357Z,3.10
2022-12-16T13:43:08.096Z,3.10
2022-12-16T13:46:01.084Z,3.10
2022-12-16T13:49:01.524Z,3.00
2022-12-16T13:52:33.857Z,3.00
2022-12-16T13:55:33.777Z,3.00
2022-12-16T13:58:33.190Z,2.90
2022-12-16T14:01:30.825Z,2.90
2022-12-16T14:04:22.349Z,2.90
2022-12-16T14:07:14.072Z,2.90
2022-12-16T14:10:07.987Z,2.90
2022-12-16T14:13:10.929Z,2.90
2022-12-16T14:16:14.647Z,2.80
2022-12-16T14:19:20.599Z,2.90
2022-12-16T14:22:18.923Z,2.80
2022-12-16T14:25:09.771Z,2.80
2022-12-16T14:28:02.145Z,2.80
2022-12-16T14:30:55.562Z,2.80
2022-12-16T14:33:48.544Z,2.80
2022-12-16T14:36:40.131Z,2.80
2022-12-16T14:39:32.845Z,2.80
2022-12-16T14:42:24.007Z,2.80
2022-12-16T14:45:14.880Z,2.80
2022-12-16T14:48:07.020Z,2.80
2022-12-16T14:51:00.325Z,2.80
2022-12-16T14:53:51.183Z,2.70
2022-12-16T14:56:42.366Z,2.70
2022-12-16T14:59:33.733Z,2.70
2022-12-16T15:02:37.722Z,2.60
2022-12-16T15:05:30.791Z,2.60
2022-12-16T15:08:21.297Z,2.60
2022-12-16T15:11:11.980Z,2.60
2022-12-16T15:14:04.036Z,2.60
2022-12-16T15:16:57.043Z,2.60
2022-12-16T15:20:01.573Z,2.50
2022-12-16T15:22:55.832Z,2.60
2022-12-16T15:25:46.834Z,2.50
2022-12-16T15:28:40.346Z,2.50
2022-12-16T15:31:41.963Z,2.50
2022-12-16T15:34:47.142Z,2.50
2022-12-16T15:37:49.869Z,2.50
2022-12-16T15:40:45.663Z,2.50
2022-12-16T15:43:42.023Z,2.50
2022-12-16T15:46:37.930Z,2.40
2022-12-16T15:49:37.757Z,2.40
2022-12-16T15:52:47.017Z,2.50
2022-12-16T15:55:49.062Z,2.40
2022-12-16T15:58:43.946Z,2.50
2022-12-16T16:01:37.313Z,2.50
2022-12-16T16:04:37.329Z,2.50
2022-12-16T16:07:33.967Z,2.50
2022-12-16T16:10:34.310Z,2.40
2022-12-16T16:13:27.626Z,2.40
2022-12-16T16:16:18.674Z,2.40
2022-12-16T16:19:09.342Z,2.40
2022-12-16T16:22:00.240Z,2.40
2022-12-16T16:24:51.059Z,2.40
2022-12-16T16:27:56.220Z,2.40
2022-12-16T16:30:48.649Z,2.40
2022-12-16T16:33:39.424Z,2.40
2022-12-16T16:36:35.904Z,2.40
2022-12-16T16:39:27.158Z,2.50
2022-12-16T16:42:17.861Z,2.40
2022-12-16T16:45:08.479Z,2.40
2022-12-16T16:48:00.601Z,2.40
2022-12-16T16:50:51.609Z,2.50
2022-12-16T16:53:42.446Z,2.40
2022-12-16T16:56:47.821Z,2.40
2022-12-16T16:59:40.983Z,2.30
2022-12-16T17:02:40.882Z,2.30
2022-12-16T17:05:33.734Z,2.20
2022-12-16T17:08:25.025Z,2.20
2022-12-16T17:11:15.816Z,2.30
2022-12-16T17:14:06.456Z,2.20
2022-12-16T17:16:58.553Z,2.20
2022-12-16T17:19:49.344Z,2.20
2022-12-16T17:22:43.764Z,2.20
2022-12-16T17:25:49.504Z,2.10
2022-12-16T17:28:40.156Z,2.00
2022-12-16T17:31:31.211Z,2.00
2022-12-16T17:34:24.512Z,2.00
2022-12-16T17:37:15.504Z,2.00
2022-12-16T17:40:07.727Z,2.00
2022-12-16T17:43:00.710Z,2.00
2022-12-16T17:45:51.513Z,2.00
2022-12-16T17:48:45.784Z,2.10
2022-12-16T17:51:36.588Z,2.10
2022-12-16T17:54:29.558Z,2.10
2022-12-16T17:57:22.227Z,2.20
2022-12-16T18:00:13.261Z,2.20
2022-12-16T18:03:04.107Z,2.20
2022-12-16T18:05:54.970Z,2.20
2022-12-16T18:08:45.786Z,2.10
2022-12-16T18:11:38.837Z,2.10
2022-12-16T18:14:31.055Z,2.10
2022-12-16T18:17:21.866Z,2.10
2022-12-16T18:20:12.835Z,2.10
2022-12-16T18:23:03.985Z,2.10
2022-12-16T18:25:54.608Z,2.10
2022-12-16T18:28:45.264Z,2.10
2022-12-16T18:31:37.746Z,2.10
2022-12-16T18:34:28.654Z,2.10
2022-12-16T18:37:19.209Z,2.00
2022-12-16T18:40:09.768Z,2.10
2022-12-16T18:42:56.937Z,2.10
2022-12-16T18:45:47.855Z,2.10
2022-12-16T18:48:39.902Z,2.10
2022-12-16T18:51:30.596Z,2.10
2022-12-16T18:54:21.274Z,2.10
2022-12-16T18:57:12.060Z,2.00
2022-12-16T19:00:02.927Z,2.10
2022-12-16T19:02:54.021Z,2.00
2022-12-16T19:05:46.156Z,2.10
2022-12-16T19:08:37.003Z,2.00
2022-12-16T19:11:27.761Z,2.00
2022-12-16T19:14:18.441Z,1.90
2022-12-16T19:17:09.120Z,1.90
2022-12-16T19:20:00.022Z,1.90
2022-12-16T19:22:52.008Z,1.90
2022-12-16T19:25:42.652Z,1.90
2022-12-16T19:28:34.434Z,1.90
2022-12-16T19:31:31.048Z,1.90
2022-12-16T19:34:23.151Z,1.90
2022-12-16T19:37:14.004Z,1.90
2022-12-16T19:40:05.953Z,1.80
2022-12-16T19:42:56.758Z,1.90
2022-12-16T19:45:47.543Z,1.80
2022-12-16T19:48:38.389Z,1.80
2022-12-16T19:51:29.405Z,1.80
2022-12-16T19:54:20.258Z,1.80
2022-12-16T19:57:12.418Z,1.80
2022-12-16T20:00:02.904Z,1.80
2022-12-16T20:03:02.761Z,1.80
2022-12-16T20:06:08.247Z,1.80
2022-12-16T20:09:00.339Z,1.80
2022-12-16T20:11:54.290Z,1.80
2022-12-16T20:14:48.415Z,1.80
2022-12-16T20:17:39.468Z,1.80
2022-12-16T20:20:30.226Z,1.80
2022-12-16T20:23:20.847Z,1.80
2022-12-16T20:26:15.117Z,1.80
2022-12-16T20:29:06.750Z,1.80
2022-12-16T20:31:59.082Z,1.80
2022-12-16T20:34:50.092Z,1.70
2022-12-16T20:37:40.835Z,1.80
2022-12-16T20:40:31.371Z,1.80
2022-12-16T20:43:22.360Z,1.80
2022-12-16T20:46:13.834Z,1.80
2022-12-16T20:49:06.950Z,1.70
2022-12-16T20:51:57.529Z,1.70
2022-12-16T20:54:48.172Z,1.70
2022-12-16T20:57:38.676Z,1.80
2022-12-16T21:00:31.042Z,1.70
2022-12-16T21:03:26.282Z,1.70
2022-12-16T21:06:18.562Z,1.70
2022-12-16T21:09:09.201Z,1.70
2022-12-16T21:12:00.146Z,1.70
2022-12-16T21:14:50.917Z,1.70
2022-12-16T21:17:42.644Z,1.60
2022-12-16T21:20:33.963Z,1.60
2022-12-16T21:23:27.716Z,1.60
2022-12-16T21:26:18.745Z,1.60
2022-12-16T21:29:09.599Z,1.60
2022-12-16T21:32:00.014Z,1.60
2022-12-16T21:34:51.773Z,1.60
2022-12-16T21:37:42.471Z,1.60
2022-12-16T21:40:34.924Z,1.50
2022-12-16T21:43:25.384Z,1.50
2022-12-16T21:46:15.904Z,1.50
2022-12-16T21:49:06.514Z,1.50
2022-12-16T21:51:57.286Z,1.40
2022-12-16T21:54:48.201Z,1.40
2022-12-16T21:57:40.396Z,1.40
2022-12-16T22:00:32.315Z,1.40
2022-12-16T22:03:23.041Z,1.40
2022-12-16T22:06:17.076Z,1.30
2022-12-16T22:09:07.856Z,1.30
2022-12-16T22:11:58.506Z,1.30
2022-12-16T22:14:49.927Z,1.20
2022-12-16T22:17:41.395Z,1.20
2022-12-16T22:20:32.040Z,1.10
2022-12-16T22:23:28.054Z,1.10
2022-12-16T22:26:20.339Z,1.10
2022-12-16T22:29:11.457Z,1.10
2022-12-16T22:32:03.746Z,1.10
2022-12-16T22:34:54.373Z,1.00
2022-12-16T22:37:46.660Z,1.00
2022-12-16T22:40:37.846Z,1.00
2022-12-16T22:43:28.514Z,1.00
2022-12-16T22:46:20.660Z,1.00
2022-12-16T22:49:15.007Z,0.90
2022-12-16T22:52:10.890Z,0.90
2022-12-16T22:55:02.078Z,0.80
2022-12-16T22:57:53.521Z,0.80
2022-12-16T23:00:44.713Z,0.80
2022-12-16T23:03:36.278Z,0.80
2022-12-16T23:06:29.221Z,0.80
2022-12-16T23:09:19.880Z,0.80
2022-12-16T23:12:07.526Z,0.80
2022-12-16T23:14:58.771Z,0.70
2022-12-16T23:17:49.666Z,0.80
2022-12-16T23:20:40.278Z,0.70
2022-12-16T23:23:32.847Z,0.70
2022-12-16T23:26:23.470Z,0.70
2022-12-16T23:29:14.548Z,0.60
2022-12-16T23:32:06.329Z,0.70
2022-12-16T23:35:00.113Z,0.60
2022-12-16T23:37:50.792Z,0.60
2022-12-16T23:40:43.029Z,0.60
2022-12-16T23:43:33.918Z,0.60
2022-12-16T23:46:24.977Z,0.60
2022-12-16T23:49:12.129Z,0.60
2022-12-16T23:52:03.308Z,0.60
2022-12-16T23:54:53.799Z,0.60
2022-12-16T23:57:48.397Z,0.60
